sensor_id;sensor_type;location;lat;lon;timestamp;temperature;humidity
60909;DHT22;46780;48.128;-1.704;2023-02-28T00:00:42;4.10;73.80
60909;DHT22;46780;48.128;-1.704;2023-02-28T00:03:08;4.10;73.90
60909;DHT22;46780;48.128;-1.704;2023-02-28T00:05:34;4.10;73.90
60909;DHT22;46780;48.128;-1.704;2023-02-28T00:08:01;4.10;73.80
60909;DHT22;46780;48.128;-1.704;2023-02-28T00:10:28;4.00;73.80
60909;DHT22;46780;48.128;-1.704;2023-02-28T00:12:55;4.10;73.80
60909;DHT22;46780;48.128;-1.704;2023-02-28T00:15:22;4.00;74.30
60909;DHT22;46780;48.128;-1.704;2023-02-28T00:17:50;4.00;74.50
60909;DHT22;46780;48.128;-1.704;2023-02-28T00:20:16;3.90;74.50
60909;DHT22;46780;48.128;-1.704;2023-02-28T00:22:43;3.90;74.70
60909;DHT22;46780;48.128;-1.704;2023-02-28T00:25:10;3.90;74.80
60909;DHT22;46780;48.128;-1.704;2023-02-28T00:27:37;3.90;74.60
60909;DHT22;46780;48.128;-1.704;2023-02-28T00:30:04;3.90;74.70
60909;DHT22;46780;48.128;-1.704;2023-02-28T00:32:30;3.80;74.90
60909;DHT22;46780;48.128;-1.704;2023-02-28T00:34:58;3.80;75.00
60909;DHT22;46780;48.128;-1.704;2023-02-28T00:37:24;3.80;75.00
60909;DHT22;46780;48.128;-1.704;2023-02-28T00:39:50;3.70;75.30
60909;DHT22;46780;48.128;-1.704;2023-02-28T00:42:16;3.60;75.60
60909;DHT22;46780;48.128;-1.704;2023-02-28T00:44:42;3.60;75.90
60909;DHT22;46780;48.128;-1.704;2023-02-28T00:47:09;3.60;76.20
60909;DHT22;46780;48.128;-1.704;2023-02-28T00:49:35;3.60;76.20
60909;DHT22;46780;48.128;-1.704;2023-02-28T00:52:02;3.60;76.50
60909;DHT22;46780;48.128;-1.704;2023-02-28T00:54:28;3.50;76.60
60909;DHT22;46780;48.128;-1.704;2023-02-28T00:56:55;3.50;76.70
60909;DHT22;46780;48.128;-1.704;2023-02-28T00:59:21;3.50;76.90
60909;DHT22;46780;48.128;-1.704;2023-02-28T01:01:47;3.50;77.00
60909;DHT22;46780;48.128;-1.704;2023-02-28T01:04:13;3.50;76.90
60909;DHT22;46780;48.128;-1.704;2023-02-28T01:06:39;3.40;77.30
60909;DHT22;46780;48.128;-1.704;2023-02-28T01:09:07;3.40;77.30
60909;DHT22;46780;48.128;-1.704;2023-02-28T01:11:34;3.40;78.20
60909;DHT22;46780;48.128;-1.704;2023-02-28T01:14:00;3.40;77.30
60909;DHT22;46780;48.128;-1.704;2023-02-28T01:16:26;3.40;77.30
60909;DHT22;46780;48.128;-1.704;2023-02-28T01:18:53;3.40;77.20
60909;DHT22;46780;48.128;-1.704;2023-02-28T01:21:20;3.40;77.10
60909;DHT22;46780;48.128;-1.704;2023-02-28T01:23:46;3.40;77.20
60909;DHT22;46780;48.128;-1.704;2023-02-28T01:26:14;3.30;77.00
60909;DHT22;46780;48.128;-1.704;2023-02-28T01:28:41;3.30;77.10
60909;DHT22;46780;48.128;-1.704;2023-02-28T01:31:07;3.30;77.10
60909;DHT22;46780;48.128;-1.704;2023-02-28T01:33:34;3.30;77.20
60909;DHT22;46780;48.128;-1.704;2023-02-28T01:36:00;3.30;77.40
60909;DHT22;46780;48.128;-1.704;2023-02-28T01:38:27;3.30;77.50
60909;DHT22;46780;48.128;-1.704;2023-02-28T01:40:53;3.20;77.60
60909;DHT22;46780;48.128;-1.704;2023-02-28T01:43:22;3.20;77.80
60909;DHT22;46780;48.128;-1.704;2023-02-28T01:45:48;3.20;78.00
60909;DHT22;46780;48.128;-1.704;2023-02-28T01:48:14;3.20;78.10
60909;DHT22;46780;48.128;-1.704;2023-02-28T01:50:42;3.20;78.20
60909;DHT22;46780;48.128;-1.704;2023-02-28T01:53:09;3.20;78.20
60909;DHT22;46780;48.128;-1.704;2023-02-28T01:55:37;3.10;78.50
60909;DHT22;46780;48.128;-1.704;2023-02-28T01:58:04;3.10;78.70
60909;DHT22;46780;48.128;-1.704;2023-02-28T02:00:34;3.10;78.70
60909;DHT22;46780;48.128;-1.704;2023-02-28T02:03:07;3.10;78.70
60909;DHT22;46780;48.128;-1.704;2023-02-28T02:05:34;3.10;78.70
60909;DHT22;46780;48.128;-1.704;2023-02-28T02:08:03;3.10;79.00
60909;DHT22;46780;48.128;-1.704;2023-02-28T02:10:31;3.00;79.20
60909;DHT22;46780;48.128;-1.704;2023-02-28T02:13:05;3.00;79.50
60909;DHT22;46780;48.128;-1.704;2023-02-28T02:15:36;2.90;79.60
60909;DHT22;46780;48.128;-1.704;2023-02-28T02:18:05;2.90;79.70
60909;DHT22;46780;48.128;-1.704;2023-02-28T02:20:46;2.90;79.80
60909;DHT22;46780;48.128;-1.704;2023-02-28T02:26:06;3.00;80.00
60909;DHT22;46780;48.128;-1.704;2023-02-28T02:28:53;3.00;79.90
60909;DHT22;46780;48.128;-1.704;2023-02-28T02:31:29;2.90;79.80
60909;DHT22;46780;48.128;-1.704;2023-02-28T02:34:09;2.90;80.50
60909;DHT22;46780;48.128;-1.704;2023-02-28T02:36:45;2.90;79.90
60909;DHT22;46780;48.128;-1.704;2023-02-28T02:39:13;2.90;80.30
60909;DHT22;46780;48.128;-1.704;2023-02-28T02:41:41;2.90;80.30
60909;DHT22;46780;48.128;-1.704;2023-02-28T02:44:13;2.80;80.30
60909;DHT22;46780;48.128;-1.704;2023-02-28T02:46:41;2.80;80.40
60909;DHT22;46780;48.128;-1.704;2023-02-28T02:49:10;2.80;80.60
60909;DHT22;46780;48.128;-1.704;2023-02-28T02:51:38;2.80;80.40
60909;DHT22;46780;48.128;-1.704;2023-02-28T02:54:08;2.80;80.60
60909;DHT22;46780;48.128;-1.704;2023-02-28T02:56:34;2.80;80.70
60909;DHT22;46780;48.128;-1.704;2023-02-28T02:59:02;2.70;80.70
60909;DHT22;46780;48.128;-1.704;2023-02-28T03:01:28;2.70;80.90
60909;DHT22;46780;48.128;-1.704;2023-02-28T03:03:56;2.70;80.90
60909;DHT22;46780;48.128;-1.704;2023-02-28T03:06:24;2.70;81.00
60909;DHT22;46780;48.128;-1.704;2023-02-28T03:08:51;2.70;81.00
60909;DHT22;46780;48.128;-1.704;2023-02-28T03:11:17;2.70;81.10
60909;DHT22;46780;48.128;-1.704;2023-02-28T03:13:50;2.70;81.10
60909;DHT22;46780;48.128;-1.704;2023-02-28T03:19:12;2.70;81.10
60909;DHT22;46780;48.128;-1.704;2023-02-28T03:21:46;2.70;81.10
60909;DHT22;46780;48.128;-1.704;2023-02-28T03:24:18;2.60;81.30
60909;DHT22;46780;48.128;-1.704;2023-02-28T03:26:46;2.50;81.70
60909;DHT22;46780;48.128;-1.704;2023-02-28T03:29:15;2.50;81.80
60909;DHT22;46780;48.128;-1.704;2023-02-28T03:31:44;2.50;82.00
60909;DHT22;46780;48.128;-1.704;2023-02-28T03:34:14;2.50;82.20
60909;DHT22;46780;48.128;-1.704;2023-02-28T03:36:42;2.50;82.20
60909;DHT22;46780;48.128;-1.704;2023-02-28T03:39:13;2.50;82.40
60909;DHT22;46780;48.128;-1.704;2023-02-28T03:41:41;2.50;82.20
60909;DHT22;46780;48.128;-1.704;2023-02-28T03:44:09;2.50;82.00
60909;DHT22;46780;48.128;-1.704;2023-02-28T03:46:38;2.50;82.30
60909;DHT22;46780;48.128;-1.704;2023-02-28T03:49:08;2.40;82.10
60909;DHT22;46780;48.128;-1.704;2023-02-28T03:51:37;2.40;82.10
60909;DHT22;46780;48.128;-1.704;2023-02-28T03:54:05;2.40;82.20
60909;DHT22;46780;48.128;-1.704;2023-02-28T03:56:34;2.40;82.30
60909;DHT22;46780;48.128;-1.704;2023-02-28T03:59:04;2.40;82.50
60909;DHT22;46780;48.128;-1.704;2023-02-28T04:01:33;2.40;82.30
60909;DHT22;46780;48.128;-1.704;2023-02-28T04:04:01;2.40;82.60
60909;DHT22;46780;48.128;-1.704;2023-02-28T04:06:27;2.40;82.50
60909;DHT22;46780;48.128;-1.704;2023-02-28T04:08:53;2.30;82.50
60909;DHT22;46780;48.128;-1.704;2023-02-28T04:11:21;2.30;82.40
60909;DHT22;46780;48.128;-1.704;2023-02-28T04:13:49;2.30;82.40
60909;DHT22;46780;48.128;-1.704;2023-02-28T04:16:15;2.30;82.60
60909;DHT22;46780;48.128;-1.704;2023-02-28T04:18:42;2.30;82.60
60909;DHT22;46780;48.128;-1.704;2023-02-28T04:21:08;2.20;83.70
60909;DHT22;46780;48.128;-1.704;2023-02-28T04:23:35;2.20;83.20
60909;DHT22;46780;48.128;-1.704;2023-02-28T04:26:01;2.20;83.80
60909;DHT22;46780;48.128;-1.704;2023-02-28T04:28:27;2.20;82.80
60909;DHT22;46780;48.128;-1.704;2023-02-28T04:30:55;2.20;82.90
60909;DHT22;46780;48.128;-1.704;2023-02-28T04:33:22;2.20;83.00
60909;DHT22;46780;48.128;-1.704;2023-02-28T04:35:48;2.20;83.00
60909;DHT22;46780;48.128;-1.704;2023-02-28T04:38:14;2.20;83.00
60909;DHT22;46780;48.128;-1.704;2023-02-28T04:40:40;2.10;83.20
60909;DHT22;46780;48.128;-1.704;2023-02-28T04:43:06;2.10;83.40
60909;DHT22;46780;48.128;-1.704;2023-02-28T04:45:32;2.10;83.30
60909;DHT22;46780;48.128;-1.704;2023-02-28T04:48:00;2.10;83.30
60909;DHT22;46780;48.128;-1.704;2023-02-28T04:50:26;2.10;83.30
60909;DHT22;46780;48.128;-1.704;2023-02-28T04:52:52;2.10;83.30
60909;DHT22;46780;48.128;-1.704;2023-02-28T04:55:18;2.10;83.60
60909;DHT22;46780;48.128;-1.704;2023-02-28T04:57:45;2.10;83.60
60909;DHT22;46780;48.128;-1.704;2023-02-28T05:00:11;2.00;83.50
60909;DHT22;46780;48.128;-1.704;2023-02-28T05:02:37;2.00;83.50
60909;DHT22;46780;48.128;-1.704;2023-02-28T05:05:05;2.00;83.70
60909;DHT22;46780;48.128;-1.704;2023-02-28T05:07:31;2.00;83.50
60909;DHT22;46780;48.128;-1.704;2023-02-28T05:09:57;2.00;83.60
60909;DHT22;46780;48.128;-1.704;2023-02-28T05:12:24;2.00;83.70
60909;DHT22;46780;48.128;-1.704;2023-02-28T05:14:50;2.00;83.70
60909;DHT22;46780;48.128;-1.704;2023-02-28T05:17:16;2.00;83.60
60909;DHT22;46780;48.128;-1.704;2023-02-28T05:19:42;2.00;83.60
60909;DHT22;46780;48.128;-1.704;2023-02-28T05:22:13;2.00;83.70
60909;DHT22;46780;48.128;-1.704;2023-02-28T05:24:40;1.90;84.00
60909;DHT22;46780;48.128;-1.704;2023-02-28T05:27:07;1.90;84.00
60909;DHT22;46780;48.128;-1.704;2023-02-28T05:29:33;1.90;84.10
60909;DHT22;46780;48.128;-1.704;2023-02-28T05:31:59;1.90;84.00
60909;DHT22;46780;48.128;-1.704;2023-02-28T05:34:26;1.90;84.20
60909;DHT22;46780;48.128;-1.704;2023-02-28T05:36:52;1.80;84.20
60909;DHT22;46780;48.128;-1.704;2023-02-28T05:39:19;1.80;84.30
60909;DHT22;46780;48.128;-1.704;2023-02-28T05:41:45;1.80;84.30
60909;DHT22;46780;48.128;-1.704;2023-02-28T05:44:12;1.80;84.40
60909;DHT22;46780;48.128;-1.704;2023-02-28T05:46:38;1.70;84.40
60909;DHT22;46780;48.128;-1.704;2023-02-28T05:49:04;1.70;84.50
60909;DHT22;46780;48.128;-1.704;2023-02-28T05:51:30;1.60;84.80
60909;DHT22;46780;48.128;-1.704;2023-02-28T05:53:58;1.60;85.00
60909;DHT22;46780;48.128;-1.704;2023-02-28T05:56:26;1.60;85.20
60909;DHT22;46780;48.128;-1.704;2023-02-28T05:58:52;1.50;85.10
60909;DHT22;46780;48.128;-1.704;2023-02-28T06:01:19;1.50;85.40
60909;DHT22;46780;48.128;-1.704;2023-02-28T06:03:45;1.60;85.20
60909;DHT22;46780;48.128;-1.704;2023-02-28T06:06:11;1.60;85.20
60909;DHT22;46780;48.128;-1.704;2023-02-28T06:08:38;1.60;85.20
60909;DHT22;46780;48.128;-1.704;2023-02-28T06:11:04;1.60;85.10
60909;DHT22;46780;48.128;-1.704;2023-02-28T06:13:32;1.60;85.00
60909;DHT22;46780;48.128;-1.704;2023-02-28T06:16:00;1.50;85.10
60909;DHT22;46780;48.128;-1.704;2023-02-28T06:18:26;1.50;85.20
60909;DHT22;46780;48.128;-1.704;2023-02-28T06:20:53;1.50;85.10
60909;DHT22;46780;48.128;-1.704;2023-02-28T06:23:19;1.50;85.20
60909;DHT22;46780;48.128;-1.704;2023-02-28T06:25:45;1.50;85.30
60909;DHT22;46780;48.128;-1.704;2023-02-28T06:28:12;1.40;85.20
60909;DHT22;46780;48.128;-1.704;2023-02-28T06:30:39;1.40;85.50
60909;DHT22;46780;48.128;-1.704;2023-02-28T06:33:06;1.40;85.30
60909;DHT22;46780;48.128;-1.704;2023-02-28T06:35:32;1.40;85.40
60909;DHT22;46780;48.128;-1.704;2023-02-28T06:37:58;1.40;85.40
60909;DHT22;46780;48.128;-1.704;2023-02-28T06:40:25;1.40;85.70
60909;DHT22;46780;48.128;-1.704;2023-02-28T06:42:51;1.40;85.60
60909;DHT22;46780;48.128;-1.704;2023-02-28T06:45:17;1.40;85.60
60909;DHT22;46780;48.128;-1.704;2023-02-28T06:47:45;1.30;85.50
60909;DHT22;46780;48.128;-1.704;2023-02-28T06:50:11;1.30;85.50
60909;DHT22;46780;48.128;-1.704;2023-02-28T06:52:38;1.30;85.60
60909;DHT22;46780;48.128;-1.704;2023-02-28T06:55:05;1.30;85.50
60909;DHT22;46780;48.128;-1.704;2023-02-28T06:57:32;1.30;85.70
60909;DHT22;46780;48.128;-1.704;2023-02-28T06:59:58;1.30;85.70
60909;DHT22;46780;48.128;-1.704;2023-02-28T07:02:25;1.30;85.80
60909;DHT22;46780;48.128;-1.704;2023-02-28T07:04:52;1.30;85.80
60909;DHT22;46780;48.128;-1.704;2023-02-28T07:07:18;1.40;85.90
60909;DHT22;46780;48.128;-1.704;2023-02-28T07:09:45;1.30;85.80
60909;DHT22;46780;48.128;-1.704;2023-02-28T07:12:11;1.40;86.00
60909;DHT22;46780;48.128;-1.704;2023-02-28T07:14:37;1.40;86.50
60909;DHT22;46780;48.128;-1.704;2023-02-28T07:17:03;1.50;86.60
60909;DHT22;46780;48.128;-1.704;2023-02-28T07:19:29;1.50;86.50
60909;DHT22;46780;48.128;-1.704;2023-02-28T07:21:57;1.60;86.50
60909;DHT22;46780;48.128;-1.704;2023-02-28T07:24:23;1.70;86.20
60909;DHT22;46780;48.128;-1.704;2023-02-28T07:26:49;1.70;85.70
60909;DHT22;46780;48.128;-1.704;2023-02-28T07:29:15;1.70;85.80
60909;DHT22;46780;48.128;-1.704;2023-02-28T07:31:41;1.80;85.60
60909;DHT22;46780;48.128;-1.704;2023-02-28T07:34:07;1.90;85.40
60909;DHT22;46780;48.128;-1.704;2023-02-28T07:36:34;2.00;85.00
60909;DHT22;46780;48.128;-1.704;2023-02-28T07:39:01;2.10;84.90
60909;DHT22;46780;48.128;-1.704;2023-02-28T07:41:27;2.10;84.50
60909;DHT22;46780;48.128;-1.704;2023-02-28T07:43:54;2.20;84.10
60909;DHT22;46780;48.128;-1.704;2023-02-28T07:46:20;2.20;83.90
60909;DHT22;46780;48.128;-1.704;2023-02-28T07:48:46;2.20;83.80
60909;DHT22;46780;48.128;-1.704;2023-02-28T07:51:12;2.30;84.40
60909;DHT22;46780;48.128;-1.704;2023-02-28T07:53:39;2.50;84.60
60909;DHT22;46780;48.128;-1.704;2023-02-28T07:56:07;2.80;83.80
60909;DHT22;46780;48.128;-1.704;2023-02-28T07:58:33;3.00;83.80
60909;DHT22;46780;48.128;-1.704;2023-02-28T08:01:05;3.40;84.10
60909;DHT22;46780;48.128;-1.704;2023-02-28T08:03:31;3.90;81.90
60909;DHT22;46780;48.128;-1.704;2023-02-28T08:05:57;4.30;80.10
60909;DHT22;46780;48.128;-1.704;2023-02-28T08:08:23;4.80;78.90
60909;DHT22;46780;48.128;-1.704;2023-02-28T08:10:49;5.30;78.30
60909;DHT22;46780;48.128;-1.704;2023-02-28T08:13:17;5.90;74.10
60909;DHT22;46780;48.128;-1.704;2023-02-28T08:15:43;6.40;71.30
60909;DHT22;46780;48.128;-1.704;2023-02-28T08:18:09;6.80;69.80
60909;DHT22;46780;48.128;-1.704;2023-02-28T08:20:36;7.10;66.00
60909;DHT22;46780;48.128;-1.704;2023-02-28T08:23:02;7.50;63.90
60909;DHT22;46780;48.128;-1.704;2023-02-28T08:25:28;8.00;61.40
60909;DHT22;46780;48.128;-1.704;2023-02-28T08:27:54;8.30;57.10
60909;DHT22;46780;48.128;-1.704;2023-02-28T08:30:22;8.70;55.90
60909;DHT22;46780;48.128;-1.704;2023-02-28T08:32:48;9.00;54.10
60909;DHT22;46780;48.128;-1.704;2023-02-28T08:35:14;9.40;53.60
60909;DHT22;46780;48.128;-1.704;2023-02-28T08:37:40;9.60;51.60
60909;DHT22;46780;48.128;-1.704;2023-02-28T08:40:07;10.00;49.80
60909;DHT22;46780;48.128;-1.704;2023-02-28T08:42:33;10.20;50.00
60909;DHT22;46780;48.128;-1.704;2023-02-28T08:44:59;10.40;48.80
60909;DHT22;46780;48.128;-1.704;2023-02-28T08:47:27;10.70;47.00
60909;DHT22;46780;48.128;-1.704;2023-02-28T08:49:53;10.80;45.80
60909;DHT22;46780;48.128;-1.704;2023-02-28T08:52:19;10.90;45.90
60909;DHT22;46780;48.128;-1.704;2023-02-28T08:54:45;11.00;45.80
60909;DHT22;46780;48.128;-1.704;2023-02-28T08:57:11;11.10;45.40
60909;DHT22;46780;48.128;-1.704;2023-02-28T08:59:38;11.40;45.20
60909;DHT22;46780;48.128;-1.704;2023-02-28T09:02:04;11.70;43.80
60909;DHT22;46780;48.128;-1.704;2023-02-28T09:04:31;12.10;44.20
60909;DHT22;46780;48.128;-1.704;2023-02-28T09:06:59;12.30;43.00
60909;DHT22;46780;48.128;-1.704;2023-02-28T09:09:25;12.50;42.40
60909;DHT22;46780;48.128;-1.704;2023-02-28T09:11:51;12.70;41.40
60909;DHT22;46780;48.128;-1.704;2023-02-28T09:14:17;13.00;40.50
60909;DHT22;46780;48.128;-1.704;2023-02-28T09:16:43;13.10;39.30
60909;DHT22;46780;48.128;-1.704;2023-02-28T09:19:10;13.30;39.60
60909;DHT22;46780;48.128;-1.704;2023-02-28T09:21:37;13.40;39.40
60909;DHT22;46780;48.128;-1.704;2023-02-28T09:24:04;13.60;38.40
60909;DHT22;46780;48.128;-1.704;2023-02-28T09:26:30;13.80;37.70
60909;DHT22;46780;48.128;-1.704;2023-02-28T09:28:56;13.90;37.90
60909;DHT22;46780;48.128;-1.704;2023-02-28T09:31:23;14.00;36.70
60909;DHT22;46780;48.128;-1.704;2023-02-28T09:33:50;14.10;36.20
60909;DHT22;46780;48.128;-1.704;2023-02-28T09:36:16;14.10;36.30
60909;DHT22;46780;48.128;-1.704;2023-02-28T09:38:44;14.20;35.70
60909;DHT22;46780;48.128;-1.704;2023-02-28T09:41:11;14.20;35.50
60909;DHT22;46780;48.128;-1.704;2023-02-28T09:43:39;14.30;35.50
60909;DHT22;46780;48.128;-1.704;2023-02-28T09:46:08;14.40;35.10
60909;DHT22;46780;48.128;-1.704;2023-02-28T09:48:39;14.30;35.20
60909;DHT22;46780;48.128;-1.704;2023-02-28T09:51:09;14.50;34.70
60909;DHT22;46780;48.128;-1.704;2023-02-28T09:53:38;14.60;34.60
60909;DHT22;46780;48.128;-1.704;2023-02-28T09:56:07;14.70;34.50
60909;DHT22;46780;48.128;-1.704;2023-02-28T09:58:36;14.70;33.90
60909;DHT22;46780;48.128;-1.704;2023-02-28T10:01:03;14.90;33.50
60909;DHT22;46780;48.128;-1.704;2023-02-28T10:03:32;15.00;33.10
60909;DHT22;46780;48.128;-1.704;2023-02-28T10:06:03;15.30;32.90
60909;DHT22;46780;48.128;-1.704;2023-02-28T10:08:32;15.40;32.50
60909;DHT22;46780;48.128;-1.704;2023-02-28T10:11:00;15.30;31.70
60909;DHT22;46780;48.128;-1.704;2023-02-28T10:13:32;15.30;32.10
60909;DHT22;46780;48.128;-1.704;2023-02-28T10:16:01;15.10;31.50
60909;DHT22;46780;48.128;-1.704;2023-02-28T10:18:35;15.10;32.10
60909;DHT22;46780;48.128;-1.704;2023-02-28T10:21:04;15.30;31.30
60909;DHT22;46780;48.128;-1.704;2023-02-28T10:23:32;15.40;31.40
60909;DHT22;46780;48.128;-1.704;2023-02-28T10:26:00;15.40;30.70
60909;DHT22;46780;48.128;-1.704;2023-02-28T10:28:27;15.40;30.70
60909;DHT22;46780;48.128;-1.704;2023-02-28T10:30:55;15.40;30.30
60909;DHT22;46780;48.128;-1.704;2023-02-28T10:33:23;15.40;30.00
60909;DHT22;46780;48.128;-1.704;2023-02-28T10:35:49;15.30;29.80
60909;DHT22;46780;48.128;-1.704;2023-02-28T10:38:17;15.20;29.90
60909;DHT22;46780;48.128;-1.704;2023-02-28T10:40:44;15.40;30.00
60909;DHT22;46780;48.128;-1.704;2023-02-28T10:43:18;15.50;30.90
60909;DHT22;46780;48.128;-1.704;2023-02-28T10:45:52;15.60;29.80
60909;DHT22;46780;48.128;-1.704;2023-02-28T10:48:27;15.60;29.10
60909;DHT22;46780;48.128;-1.704;2023-02-28T10:50:55;15.50;28.90
60909;DHT22;46780;48.128;-1.704;2023-02-28T10:53:28;15.60;29.00
60909;DHT22;46780;48.128;-1.704;2023-02-28T10:55:56;15.50;28.80
60909;DHT22;46780;48.128;-1.704;2023-02-28T10:58:23;15.50;28.70
60909;DHT22;46780;48.128;-1.704;2023-02-28T11:00:50;15.50;28.20
60909;DHT22;46780;48.128;-1.704;2023-02-28T11:03:23;15.40;28.30
60909;DHT22;46780;48.128;-1.704;2023-02-28T11:05:50;15.30;28.90
60909;DHT22;46780;48.128;-1.704;2023-02-28T11:08:17;15.40;29.10
60909;DHT22;46780;48.128;-1.704;2023-02-28T11:10:44;15.40;28.90
60909;DHT22;46780;48.128;-1.704;2023-02-28T11:13:15;15.50;28.90
60909;DHT22;46780;48.128;-1.704;2023-02-28T11:15:42;15.50;29.10
60909;DHT22;46780;48.128;-1.704;2023-02-28T11:18:19;15.50;29.00
60909;DHT22;46780;48.128;-1.704;2023-02-28T11:20:47;15.40;28.90
60909;DHT22;46780;48.128;-1.704;2023-02-28T11:23:15;15.50;28.90
60909;DHT22;46780;48.128;-1.704;2023-02-28T11:25:46;15.60;28.80
60909;DHT22;46780;48.128;-1.704;2023-02-28T11:28:23;15.70;29.10
60909;DHT22;46780;48.128;-1.704;2023-02-28T11:30:59;15.80;29.30
60909;DHT22;46780;48.128;-1.704;2023-02-28T11:33:27;15.80;28.50
60909;DHT22;46780;48.128;-1.704;2023-02-28T11:35:53;15.70;28.00
60909;DHT22;46780;48.128;-1.704;2023-02-28T11:38:24;15.70;28.20
60909;DHT22;46780;48.128;-1.704;2023-02-28T11:40:52;15.70;28.00
60909;DHT22;46780;48.128;-1.704;2023-02-28T11:43:25;15.80;28.00
60909;DHT22;46780;48.128;-1.704;2023-02-28T11:45:57;16.00;27.80
60909;DHT22;46780;48.128;-1.704;2023-02-28T11:48:27;16.20;28.10
60909;DHT22;46780;48.128;-1.704;2023-02-28T11:50:56;16.30;27.30
60909;DHT22;46780;48.128;-1.704;2023-02-28T11:53:31;16.40;27.70
60909;DHT22;46780;48.128;-1.704;2023-02-28T11:56:02;16.60;27.70
60909;DHT22;46780;48.128;-1.704;2023-02-28T11:58:33;16.70;27.40
60909;DHT22;46780;48.128;-1.704;2023-02-28T12:01:07;16.60;26.90
60909;DHT22;46780;48.128;-1.704;2023-02-28T12:03:39;16.50;26.70
60909;DHT22;46780;48.128;-1.704;2023-02-28T12:06:12;16.60;27.00
60909;DHT22;46780;48.128;-1.704;2023-02-28T12:08:47;16.70;27.10
60909;DHT22;46780;48.128;-1.704;2023-02-28T12:11:16;16.70;26.90
60909;DHT22;46780;48.128;-1.704;2023-02-28T12:13:46;16.70;26.90
60909;DHT22;46780;48.128;-1.704;2023-02-28T12:19:07;17.10;26.60
60909;DHT22;46780;48.128;-1.704;2023-02-28T12:21:41;17.00;26.90
60909;DHT22;46780;48.128;-1.704;2023-02-28T12:24:18;17.00;27.00
60909;DHT22;46780;48.128;-1.704;2023-02-28T12:26:49;16.90;27.00
60909;DHT22;46780;48.128;-1.704;2023-02-28T12:29:17;16.90;27.00
60909;DHT22;46780;48.128;-1.704;2023-02-28T12:31:45;17.00;27.50
60909;DHT22;46780;48.128;-1.704;2023-02-28T12:34:13;17.20;27.10
60909;DHT22;46780;48.128;-1.704;2023-02-28T12:36:41;17.20;27.20
60909;DHT22;46780;48.128;-1.704;2023-02-28T12:39:09;17.40;27.10
60909;DHT22;46780;48.128;-1.704;2023-02-28T12:41:39;17.40;26.70
60909;DHT22;46780;48.128;-1.704;2023-02-28T12:44:07;17.50;26.90
60909;DHT22;46780;48.128;-1.704;2023-02-28T12:46:35;17.70;26.80
60909;DHT22;46780;48.128;-1.704;2023-02-28T12:49:04;17.70;27.00
60909;DHT22;46780;48.128;-1.704;2023-02-28T12:51:32;17.40;26.80
60909;DHT22;46780;48.128;-1.704;2023-02-28T12:54:00;17.00;27.20
60909;DHT22;46780;48.128;-1.704;2023-02-28T12:56:33;16.40;27.50
60909;DHT22;46780;48.128;-1.704;2023-02-28T12:59:03;15.60;28.10
60909;DHT22;46780;48.128;-1.704;2023-02-28T13:01:36;15.00;28.90
60909;DHT22;46780;48.128;-1.704;2023-02-28T13:06:51;14.10;30.00
60909;DHT22;46780;48.128;-1.704;2023-02-28T13:09:22;13.70;30.90
60909;DHT22;46780;48.128;-1.704;2023-02-28T13:11:49;14.00;31.80
60909;DHT22;46780;48.128;-1.704;2023-02-28T13:14:19;14.60;31.50
60909;DHT22;46780;48.128;-1.704;2023-02-28T13:19:30;15.40;30.60
60909;DHT22;46780;48.128;-1.704;2023-02-28T13:21:57;15.80;29.80
60909;DHT22;46780;48.128;-1.704;2023-02-28T13:24:44;15.80;29.50
60909;DHT22;46780;48.128;-1.704;2023-02-28T13:27:11;15.50;29.60
60909;DHT22;46780;48.128;-1.704;2023-02-28T13:29:39;15.10;30.00
60909;DHT22;46780;48.128;-1.704;2023-02-28T13:35:12;14.80;30.80
60909;DHT22;46780;48.128;-1.704;2023-02-28T13:37:41;14.70;31.00
60909;DHT22;46780;48.128;-1.704;2023-02-28T13:40:29;14.40;31.70
60909;DHT22;46780;48.128;-1.704;2023-02-28T13:42:56;13.90;32.00
60909;DHT22;46780;48.128;-1.704;2023-02-28T13:45:27;13.20;33.00
60909;DHT22;46780;48.128;-1.704;2023-02-28T13:47:55;12.60;34.20
60909;DHT22;46780;48.128;-1.704;2023-02-28T13:50:23;12.10;36.10
60909;DHT22;46780;48.128;-1.704;2023-02-28T13:52:52;11.70;36.00
60909;DHT22;46780;48.128;-1.704;2023-02-28T13:55:24;11.30;37.30
60909;DHT22;46780;48.128;-1.704;2023-02-28T13:58:05;10.90;38.30
60909;DHT22;46780;48.128;-1.704;2023-02-28T14:00:37;10.50;39.40
60909;DHT22;46780;48.128;-1.704;2023-02-28T14:03:16;10.20;40.40
60909;DHT22;46780;48.128;-1.704;2023-02-28T14:05:47;9.90;41.30
60909;DHT22;46780;48.128;-1.704;2023-02-28T14:08:33;9.60;41.70
60909;DHT22;46780;48.128;-1.704;2023-02-28T14:11:02;9.50;43.10
60909;DHT22;46780;48.128;-1.704;2023-02-28T14:13:40;9.30;43.60
60909;DHT22;46780;48.128;-1.704;2023-02-28T14:16:08;9.10;43.90
60909;DHT22;46780;48.128;-1.704;2023-02-28T14:18:34;9.00;44.20
60909;DHT22;46780;48.128;-1.704;2023-02-28T14:21:02;8.90;44.40
60909;DHT22;46780;48.128;-1.704;2023-02-28T14:23:36;8.90;44.80
60909;DHT22;46780;48.128;-1.704;2023-02-28T14:26:07;8.80;45.70
60909;DHT22;46780;48.128;-1.704;2023-02-28T14:28:44;8.70;46.80
60909;DHT22;46780;48.128;-1.704;2023-02-28T14:31:15;8.70;47.00
60909;DHT22;46780;48.128;-1.704;2023-02-28T14:33:48;8.60;47.50
60909;DHT22;46780;48.128;-1.704;2023-02-28T14:36:21;8.50;48.30
60909;DHT22;46780;48.128;-1.704;2023-02-28T14:38:50;8.40;48.70
60909;DHT22;46780;48.128;-1.704;2023-02-28T14:41:21;8.40;49.30
60909;DHT22;46780;48.128;-1.704;2023-02-28T14:43:49;8.30;49.60
60909;DHT22;46780;48.128;-1.704;2023-02-28T14:46:17;8.20;50.50
60909;DHT22;46780;48.128;-1.704;2023-02-28T14:48:44;8.10;52.50
60909;DHT22;46780;48.128;-1.704;2023-02-28T14:51:10;8.10;53.70
60909;DHT22;46780;48.128;-1.704;2023-02-28T14:53:38;8.10;54.00
60909;DHT22;46780;48.128;-1.704;2023-02-28T14:56:04;8.00;55.80
60909;DHT22;46780;48.128;-1.704;2023-02-28T14:58:31;8.00;56.90
60909;DHT22;46780;48.128;-1.704;2023-02-28T15:01:00;7.90;57.70
60909;DHT22;46780;48.128;-1.704;2023-02-28T15:03:31;7.90;58.50
60909;DHT22;46780;48.128;-1.704;2023-02-28T15:05:58;7.90;58.50
60909;DHT22;46780;48.128;-1.704;2023-02-28T15:08:25;7.80;58.70
60909;DHT22;46780;48.128;-1.704;2023-02-28T15:10:52;7.80;58.40
60909;DHT22;46780;48.128;-1.704;2023-02-28T15:13:19;7.80;58.90
60909;DHT22;46780;48.128;-1.704;2023-02-28T15:15:46;7.90;61.00
60909;DHT22;46780;48.128;-1.704;2023-02-28T15:18:15;7.90;63.40
60909;DHT22;46780;48.128;-1.704;2023-02-28T15:20:45;7.90;63.80
60909;DHT22;46780;48.128;-1.704;2023-02-28T15:23:11;7.80;64.60
60909;DHT22;46780;48.128;-1.704;2023-02-28T15:25:37;7.80;65.40
60909;DHT22;46780;48.128;-1.704;2023-02-28T15:28:09;7.70;66.50
60909;DHT22;46780;48.128;-1.704;2023-02-28T15:30:37;7.60;67.70
60909;DHT22;46780;48.128;-1.704;2023-02-28T15:33:16;7.60;69.30
60909;DHT22;46780;48.128;-1.704;2023-02-28T15:35:44;7.50;70.70
60909;DHT22;46780;48.128;-1.704;2023-02-28T15:38:13;7.40;71.00
60909;DHT22;46780;48.128;-1.704;2023-02-28T15:40:41;7.40;72.10
60909;DHT22;46780;48.128;-1.704;2023-02-28T15:43:13;7.30;72.90
60909;DHT22;46780;48.128;-1.704;2023-02-28T15:45:41;7.30;73.50
60909;DHT22;46780;48.128;-1.704;2023-02-28T15:48:17;7.20;73.70